sensor_id;sensor_type;location;lat;lon;timestamp;P1;durP1;ratioP1;P2;durP2;ratioP2
41167;SDS011;26906;45.658;9.272;2023-05-10T05:38:26;8.38;;;3.85;;
41167;SDS011;26906;45.658;9.272;2023-05-10T05:40:52;5.43;;;3.58;;
41167;SDS011;26906;45.658;9.272;2023-05-10T05:43:19;4.32;;;3.60;;
41167;SDS011;26906;45.658;9.272;2023-05-10T05:45:44;4.60;;;3.33;;
41167;SDS011;26906;45.658;9.272;2023-05-10T05:48:10;6.45;;;3.35;;
41167;SDS011;26906;45.658;9.272;2023-05-10T05:50:36;7.72;;;3.80;;
41167;SDS011;26906;45.658;9.272;2023-05-10T05:53:01;6.20;;;3.88;;
41167;SDS011;26906;45.658;9.272;2023-05-10T05:55:27;3.88;;;3.53;;
41167;SDS011;26906;45.658;9.272;2023-05-10T05:57:54;4.13;;;3.60;;
41167;SDS011;26906;45.658;9.272;2023-05-10T06:00:20;4.63;;;4.18;;
41167;SDS011;26906;45.658;9.272;2023-05-10T06:02:46;4.57;;;3.92;;
41167;SDS011;26906;45.658;9.272;2023-05-10T06:05:12;4.15;;;3.47;;
41167;SDS011;26906;45.658;9.272;2023-05-10T06:07:39;6.13;;;3.70;;
41167;SDS011;26906;45.658;9.272;2023-05-10T06:10:07;3.70;;;3.35;;
41167;SDS011;26906;45.658;9.272;2023-05-10T06:12:34;5.85;;;3.58;;
41167;SDS011;26906;45.658;9.272;2023-05-10T06:14:59;6.60;;;3.53;;
41167;SDS011;26906;45.658;9.272;2023-05-10T06:17:25;3.97;;;3.55;;
41167;SDS011;26906;45.658;9.272;2023-05-10T06:19:52;4.32;;;3.60;;
41167;SDS011;26906;45.658;9.272;2023-05-10T06:22:18;3.83;;;3.40;;
41167;SDS011;26906;45.658;9.272;2023-05-10T06:24:43;6.07;;;3.67;;
41167;SDS011;26906;45.658;9.272;2023-05-10T06:27:09;4.32;;;3.58;;
41167;SDS011;26906;45.658;9.272;2023-05-10T06:29:54;3.70;;;3.40;;
41167;SDS011;26906;45.658;9.272;2023-05-10T06:32:20;5.03;;;3.92;;
41167;SDS011;26906;45.658;9.272;2023-05-10T06:34:45;5.90;;;3.92;;
41167;SDS011;26906;45.658;9.272;2023-05-10T06:37:11;4.40;;;3.70;;
41167;SDS011;26906;45.658;9.272;2023-05-10T06:39:37;5.05;;;3.75;;
41167;SDS011;26906;45.658;9.272;2023-05-10T06:42:02;4.55;;;4.15;;
41167;SDS011;26906;45.658;9.272;2023-05-10T06:44:31;23.27;;;5.07;;
41167;SDS011;26906;45.658;9.272;2023-05-10T06:46:57;16.88;;;11.38;;
41167;SDS011;26906;45.658;9.272;2023-05-10T06:49:23;13.18;;;11.40;;
41167;SDS011;26906;45.658;9.272;2023-05-10T06:51:48;15.40;;;13.27;;
41167;SDS011;26906;45.658;9.272;2023-05-10T06:54:14;78.88;;;52.22;;
41167;SDS011;26906;45.658;9.272;2023-05-10T06:56:40;8.65;;;5.88;;
41167;SDS011;26906;45.658;9.272;2023-05-10T06:59:05;4.57;;;4.18;;
41167;SDS011;26906;45.658;9.272;2023-05-10T07:01:31;4.93;;;4.20;;
41167;SDS011;26906;45.658;9.272;2023-05-10T07:03:57;5.10;;;4.38;;
41167;SDS011;26906;45.658;9.272;2023-05-10T07:06:22;6.10;;;4.90;;
41167;SDS011;26906;45.658;9.272;2023-05-10T07:08:48;4.85;;;4.28;;
41167;SDS011;26906;45.658;9.272;2023-05-10T07:11:14;9.13;;;4.75;;
41167;SDS011;26906;45.658;9.272;2023-05-10T07:13:39;7.30;;;5.30;;
41167;SDS011;26906;45.658;9.272;2023-05-10T07:16:09;6.13;;;4.38;;
41167;SDS011;26906;45.658;9.272;2023-05-10T07:18:35;96.80;;;23.52;;
41167;SDS011;26906;45.658;9.272;2023-05-10T07:21:01;272.42;;;126.10;;
41167;SDS011;26906;45.658;9.272;2023-05-10T07:23:27;59.20;;;27.20;;
41167;SDS011;26906;45.658;9.272;2023-05-10T07:25:53;149.38;;;48.45;;
41167;SDS011;26906;45.658;9.272;2023-05-10T07:28:19;89.15;;;33.22;;
41167;SDS011;26906;45.658;9.272;2023-05-10T07:30:46;20.00;;;11.10;;
41167;SDS011;26906;45.658;9.272;2023-05-10T07:33:15;8.90;;;6.20;;
41167;SDS011;26906;45.658;9.272;2023-05-10T07:35:41;66.07;;;26.67;;
41167;SDS011;26906;45.658;9.272;2023-05-10T07:38:08;37.13;;;12.60;;
41167;SDS011;26906;45.658;9.272;2023-05-10T07:40:36;49.00;;;12.13;;
41167;SDS011;26906;45.658;9.272;2023-05-10T07:43:03;25.08;;;10.60;;
41167;SDS011;26906;45.658;9.272;2023-05-10T07:45:30;32.17;;;9.50;;
41167;SDS011;26906;45.658;9.272;2023-05-10T07:47:55;6.13;;;5.53;;
41167;SDS011;26906;45.658;9.272;2023-05-10T07:50:21;17.55;;;8.30;;
41167;SDS011;26906;45.658;9.272;2023-05-10T07:52:47;15.45;;;6.03;;
41167;SDS011;26906;45.658;9.272;2023-05-10T07:55:13;8.20;;;5.50;;
41167;SDS011;26906;45.658;9.272;2023-05-10T07:57:39;5.07;;;4.15;;
41167;SDS011;26906;45.658;9.272;2023-05-10T08:00:05;10.52;;;5.20;;
41167;SDS011;26906;45.658;9.272;2023-05-10T08:02:38;10.98;;;4.93;;
41167;SDS011;26906;45.658;9.272;2023-05-10T08:05:04;6.57;;;4.88;;
41167;SDS011;26906;45.658;9.272;2023-05-10T08:07:30;5.13;;;4.63;;
41167;SDS011;26906;45.658;9.272;2023-05-10T08:09:56;6.72;;;4.60;;
41167;SDS011;26906;45.658;9.272;2023-05-10T08:12:22;15.30;;;5.40;;
41167;SDS011;26906;45.658;9.272;2023-05-10T08:14:47;15.57;;;6.40;;
41167;SDS011;26906;45.658;9.272;2023-05-10T08:17:13;11.18;;;7.57;;
41167;SDS011;26906;45.658;9.272;2023-05-10T08:19:39;6.53;;;4.85;;
41167;SDS011;26906;45.658;9.272;2023-05-10T08:22:06;19.10;;;6.97;;
41167;SDS011;26906;45.658;9.272;2023-05-10T08:24:32;21.70;;;10.80;;
41167;SDS011;26906;45.658;9.272;2023-05-10T08:27:00;11.63;;;7.57;;
41167;SDS011;26906;45.658;9.272;2023-05-10T08:29:26;140.48;;;18.95;;
41167;SDS011;26906;45.658;9.272;2023-05-10T08:31:51;52.60;;;10.05;;
41167;SDS011;26906;45.658;9.272;2023-05-10T08:34:17;33.38;;;9.50;;
41167;SDS011;26906;45.658;9.272;2023-05-10T08:36:43;33.15;;;8.25;;
41167;SDS011;26906;45.658;9.272;2023-05-10T08:39:08;42.80;;;12.65;;
41167;SDS011;26906;45.658;9.272;2023-05-10T08:41:34;124.68;;;13.73;;
41167;SDS011;26906;45.658;9.272;2023-05-10T08:44:04;388.30;;;30.20;;
41167;SDS011;26906;45.658;9.272;2023-05-10T08:46:31;61.63;;;8.57;;
41167;SDS011;26906;45.658;9.272;2023-05-10T08:49:01;355.83;;;26.05;;
41167;SDS011;26906;45.658;9.272;2023-05-10T08:51:29;448.77;;;35.78;;
41167;SDS011;26906;45.658;9.272;2023-05-10T08:54:00;758.85;;;57.35;;
41167;SDS011;26906;45.658;9.272;2023-05-10T08:56:26;1312.32;;;115.95;;
41167;SDS011;26906;45.658;9.272;2023-05-10T08:58:51;827.00;;;80.68;;
41167;SDS011;26906;45.658;9.272;2023-05-10T09:01:18;119.90;;;14.95;;
41167;SDS011;26906;45.658;9.272;2023-05-10T09:03:45;55.28;;;8.20;;
41167;SDS011;26906;45.658;9.272;2023-05-10T09:06:12;83.45;;;9.20;;
41167;SDS011;26906;45.658;9.272;2023-05-10T09:08:39;28.08;;;7.38;;
41167;SDS011;26906;45.658;9.272;2023-05-10T09:11:06;18.73;;;5.20;;
41167;SDS011;26906;45.658;9.272;2023-05-10T09:13:33;13.77;;;5.32;;
41167;SDS011;26906;45.658;9.272;2023-05-10T09:16:00;67.00;;;11.00;;
41167;SDS011;26906;45.658;9.272;2023-05-10T09:18:28;38.67;;;7.85;;
41167;SDS011;26906;45.658;9.272;2023-05-10T09:20:54;117.03;;;12.68;;
41167;SDS011;26906;45.658;9.272;2023-05-10T09:23:20;188.40;;;16.17;;
41167;SDS011;26906;45.658;9.272;2023-05-10T09:25:45;581.45;;;39.85;;
41167;SDS011;26906;45.658;9.272;2023-05-10T09:28:11;206.43;;;17.92;;
41167;SDS011;26906;45.658;9.272;2023-05-10T09:30:37;111.82;;;14.10;;
41167;SDS011;26906;45.658;9.272;2023-05-10T09:33:03;95.55;;;14.75;;
41167;SDS011;26906;45.658;9.272;2023-05-10T09:35:30;175.93;;;33.42;;
41167;SDS011;26906;45.658;9.272;2023-05-10T09:38:00;92.07;;;12.88;;
41167;SDS011;26906;45.658;9.272;2023-05-10T09:40:27;243.40;;;23.08;;
41167;SDS011;26906;45.658;9.272;2023-05-10T09:45:22;46.30;;;6.93;;
41167;SDS011;26906;45.658;9.272;2023-05-10T09:47:49;195.05;;;17.58;;
41167;SDS011;26906;45.658;9.272;2023-05-10T09:50:14;87.63;;;12.48;;
41167;SDS011;26906;45.658;9.272;2023-05-10T09:52:47;85.10;;;10.55;;
41167;SDS011;26906;45.658;9.272;2023-05-10T09:55:21;25.08;;;6.15;;
41167;SDS011;26906;45.658;9.272;2023-05-10T09:57:48;10.85;;;5.35;;
41167;SDS011;26906;45.658;9.272;2023-05-10T10:00:18;29.20;;;7.90;;
41167;SDS011;26906;45.658;9.272;2023-05-10T10:02:48;47.83;;;7.55;;
41167;SDS011;26906;45.658;9.272;2023-05-10T10:05:20;25.40;;;6.32;;
41167;SDS011;26906;45.658;9.272;2023-05-10T10:07:46;35.33;;;7.32;;
41167;SDS011;26906;45.658;9.272;2023-05-10T10:10:14;65.57;;;7.25;;
41167;SDS011;26906;45.658;9.272;2023-05-10T10:12:41;58.65;;;7.85;;
41167;SDS011;26906;45.658;9.272;2023-05-10T10:15:07;50.67;;;7.22;;
41167;SDS011;26906;45.658;9.272;2023-05-10T10:17:35;23.23;;;5.32;;
41167;SDS011;26906;45.658;9.272;2023-05-10T10:20:02;5.57;;;4.22;;
41167;SDS011;26906;45.658;9.272;2023-05-10T10:22:28;74.18;;;9.15;;
41167;SDS011;26906;45.658;9.272;2023-05-10T10:24:54;18.80;;;7.00;;
41167;SDS011;26906;45.658;9.272;2023-05-10T10:27:24;11.68;;;6.03;;
41167;SDS011;26906;45.658;9.272;2023-05-10T10:30:02;9.35;;;5.10;;
41167;SDS011;26906;45.658;9.272;2023-05-10T10:32:59;9.30;;;4.82;;
41167;SDS011;26906;45.658;9.272;2023-05-10T10:35:35;7.03;;;5.22;;
41167;SDS011;26906;45.658;9.272;2023-05-10T10:38:01;8.35;;;5.90;;
41167;SDS011;26906;45.658;9.272;2023-05-10T10:40:31;6.72;;;6.13;;
41167;SDS011;26906;45.658;9.272;2023-05-10T10:42:58;10.18;;;6.95;;
41167;SDS011;26906;45.658;9.272;2023-05-10T10:45:43;8.10;;;7.30;;
41167;SDS011;26906;45.658;9.272;2023-05-10T10:48:32;8.95;;;8.05;;
41167;SDS011;26906;45.658;9.272;2023-05-10T10:50:58;15.40;;;12.07;;
41167;SDS011;26906;45.658;9.272;2023-05-10T10:53:27;14.68;;;8.43;;
41167;SDS011;26906;45.658;9.272;2023-05-10T10:56:02;9.20;;;8.38;;
41167;SDS011;26906;45.658;9.272;2023-05-10T10:58:32;27.35;;;20.70;;
41167;SDS011;26906;45.658;9.272;2023-05-10T11:01:12;34.58;;;24.60;;
41167;SDS011;26906;45.658;9.272;2023-05-10T11:03:38;12.18;;;10.48;;
41167;SDS011;26906;45.658;9.272;2023-05-10T11:06:04;9.43;;;7.75;;
41167;SDS011;26906;45.658;9.272;2023-05-10T11:08:31;13.07;;;7.60;;
41167;SDS011;26906;45.658;9.272;2023-05-10T11:13:40;36.35;;;16.30;;
41167;SDS011;26906;45.658;9.272;2023-05-10T11:16:14;18.17;;;8.45;;
41167;SDS011;26906;45.658;9.272;2023-05-10T11:19:04;75.20;;;11.52;;
41167;SDS011;26906;45.658;9.272;2023-05-10T11:24:29;236.77;;;21.88;;
41167;SDS011;26906;45.658;9.272;2023-05-10T11:26:54;271.52;;;25.55;;
41167;SDS011;26906;45.658;9.272;2023-05-10T11:29:21;307.67;;;25.67;;
41167;SDS011;26906;45.658;9.272;2023-05-10T11:31:47;22.10;;;6.15;;
41167;SDS011;26906;45.658;9.272;2023-05-10T11:34:24;51.47;;;8.55;;
41167;SDS011;26906;45.658;9.272;2023-05-10T11:36:55;260.17;;;20.52;;
41167;SDS011;26906;45.658;9.272;2023-05-10T11:39:25;53.22;;;8.50;;
41167;SDS011;26906;45.658;9.272;2023-05-10T11:41:55;10.45;;;5.63;;
41167;SDS011;26906;45.658;9.272;2023-05-10T11:44:21;8.38;;;6.07;;
41167;SDS011;26906;45.658;9.272;2023-05-10T11:46:47;21.98;;;5.40;;
41167;SDS011;26906;45.658;9.272;2023-05-10T11:49:14;32.67;;;7.80;;
41167;SDS011;26906;45.658;9.272;2023-05-10T11:51:40;20.60;;;8.13;;
41167;SDS011;26906;45.658;9.272;2023-05-10T11:54:08;6.60;;;5.25;;
41167;SDS011;26906;45.658;9.272;2023-05-10T11:56:36;25.35;;;6.68;;
41167;SDS011;26906;45.658;9.272;2023-05-10T11:59:05;21.90;;;6.55;;
41167;SDS011;26906;45.658;9.272;2023-05-10T12:01:31;18.25;;;6.63;;
41167;SDS011;26906;45.658;9.272;2023-05-10T12:03:57;11.68;;;6.05;;
41167;SDS011;26906;45.658;9.272;2023-05-10T12:06:29;6.25;;;5.65;;
41167;SDS011;26906;45.658;9.272;2023-05-10T12:08:56;6.13;;;5.53;;
41167;SDS011;26906;45.658;9.272;2023-05-10T12:11:26;32.53;;;10.25;;
41167;SDS011;26906;45.658;9.272;2023-05-10T12:13:53;8.70;;;7.18;;
41167;SDS011;26906;45.658;9.272;2023-05-10T12:16:20;7.72;;;6.93;;
41167;SDS011;26906;45.658;9.272;2023-05-10T12:18:50;18.23;;;7.50;;
41167;SDS011;26906;45.658;9.272;2023-05-10T12:21:17;9.35;;;6.68;;
41167;SDS011;26906;45.658;9.272;2023-05-10T12:23:50;47.72;;;10.13;;
41167;SDS011;26906;45.658;9.272;2023-05-10T12:26:16;14.50;;;7.15;;
41167;SDS011;26906;45.658;9.272;2023-05-10T12:28:43;78.28;;;13.80;;
41167;SDS011;26906;45.658;9.272;2023-05-10T12:31:09;15.60;;;7.60;;
41167;SDS011;26906;45.658;9.272;2023-05-10T12:33:37;8.30;;;6.95;;
41167;SDS011;26906;45.658;9.272;2023-05-10T12:36:08;208.20;;;29.93;;
41167;SDS011;26906;45.658;9.272;2023-05-10T12:38:36;59.72;;;12.52;;
41167;SDS011;26906;45.658;9.272;2023-05-10T12:41:07;32.90;;;16.88;;
41167;SDS011;26906;45.658;9.272;2023-05-10T12:43:37;11.68;;;8.77;;
41167;SDS011;26906;45.658;9.272;2023-05-10T12:46:04;10.80;;;8.02;;
41167;SDS011;26906;45.658;9.272;2023-05-10T12:48:36;11.77;;;7.38;;
41167;SDS011;26906;45.658;9.272;2023-05-10T12:51:03;23.63;;;9.15;;
41167;SDS011;26906;45.658;9.272;2023-05-10T12:53:30;18.60;;;7.43;;
41167;SDS011;26906;45.658;9.272;2023-05-10T12:55:56;28.27;;;8.18;;
41167;SDS011;26906;45.658;9.272;2023-05-10T12:58:22;19.65;;;7.50;;
41167;SDS011;26906;45.658;9.272;2023-05-10T13:00:48;16.38;;;8.00;;
41167;SDS011;26906;45.658;9.272;2023-05-10T13:03:16;38.47;;;9.23;;
41167;SDS011;26906;45.658;9.272;2023-05-10T13:05:42;27.20;;;9.05;;
41167;SDS011;26906;45.658;9.272;2023-05-10T13:08:08;11.13;;;7.60;;
41167;SDS011;26906;45.658;9.272;2023-05-10T13:10:33;9.45;;;7.53;;
41167;SDS011;26906;45.658;9.272;2023-05-10T13:12:59;20.23;;;15.80;;
41167;SDS011;26906;45.658;9.272;2023-05-10T13:15:25;21.27;;;11.15;;
41167;SDS011;26906;45.658;9.272;2023-05-10T13:17:51;21.42;;;10.23;;
41167;SDS011;26906;45.658;9.272;2023-05-10T13:20:18;14.27;;;8.20;;
41167;SDS011;26906;45.658;9.272;2023-05-10T13:22:44;8.98;;;7.60;;
41167;SDS011;26906;45.658;9.272;2023-05-10T13:25:10;10.30;;;7.75;;
41167;SDS011;26906;45.658;9.272;2023-05-10T13:27:36;13.13;;;8.48;;
41167;SDS011;26906;45.658;9.272;2023-05-10T13:30:03;9.55;;;8.18;;
41167;SDS011;26906;45.658;9.272;2023-05-10T13:32:29;14.88;;;8.18;;
41167;SDS011;26906;45.658;9.272;2023-05-10T13:34:55;11.32;;;8.05;;
41167;SDS011;26906;45.658;9.272;2023-05-10T13:37:21;8.50;;;7.70;;
41167;SDS011;26906;45.658;9.272;2023-05-10T13:39:47;19.65;;;8.73;;
41167;SDS011;26906;45.658;9.272;2023-05-10T13:42:13;9.27;;;8.05;;
41167;SDS011;26906;45.658;9.272;2023-05-10T13:44:39;10.30;;;7.53;;
41167;SDS011;26906;45.658;9.272;2023-05-10T13:47:05;13.25;;;9.98;;
41167;SDS011;26906;45.658;9.272;2023-05-10T13:49:31;12.00;;;10.57;;
41167;SDS011;26906;45.658;9.272;2023-05-10T13:51:56;10.57;;;9.48;;
41167;SDS011;26906;45.658;9.272;2023-05-10T13:54:23;8.35;;;7.47;;
41167;SDS011;26906;45.658;9.272;2023-05-10T13:56:49;8.93;;;8.02;;
41167;SDS011;26906;45.658;9.272;2023-05-10T13:59:15;13.23;;;8.52;;
41167;SDS011;26906;45.658;9.272;2023-05-10T14:01:41;13.35;;;9.63;;
41167;SDS011;26906;45.658;9.272;2023-05-10T14:04:08;11.90;;;9.13;;
41167;SDS011;26906;45.658;9.272;2023-05-10T14:06:38;8.82;;;7.80;;
41167;SDS011;26906;45.658;9.272;2023-05-10T14:09:03;8.05;;;7.35;;
41167;SDS011;26906;45.658;9.272;2023-05-10T14:11:29;26.95;;;9.80;;
41167;SDS011;26906;45.658;9.272;2023-05-10T14:13:55;10.77;;;8.25;;
41167;SDS011;26906;45.658;9.272;2023-05-10T14:16:20;28.63;;;8.60;;
41167;SDS011;26906;45.658;9.272;2023-05-10T14:18:46;165.50;;;14.50;;
41167;SDS011;26906;45.658;9.272;2023-05-10T14:21:12;102.18;;;12.60;;
41167;SDS011;26906;45.658;9.272;2023-05-10T14:23:38;39.25;;;10.32;;
41167;SDS011;26906;45.658;9.272;2023-05-10T14:26:04;42.25;;;10.48;;
41167;SDS011;26906;45.658;9.272;2023-05-10T14:28:30;41.08;;;13.05;;
41167;SDS011;26906;45.658;9.272;2023-05-10T14:30:56;18.42;;;12.38;;
41167;SDS011;26906;45.658;9.272;2023-05-10T14:33:21;19.58;;;11.18;;
41167;SDS011;26906;45.658;9.272;2023-05-10T14:35:47;19.92;;;9.70;;
41167;SDS011;26906;45.658;9.272;2023-05-10T14:40:58;12.60;;;9.68;;
41167;SDS011;26906;45.658;9.272;2023-05-10T14:43:23;12.57;;;9.90;;
41167;SDS011;26906;45.658;9.272;2023-05-10T14:45:49;13.63;;;10.82;;
41167;SDS011;26906;45.658;9.272;2023-05-10T14:48:15;12.65;;;9.80;;
41167;SDS011;26906;45.658;9.272;2023-05-10T14:50:42;14.90;;;10.70;;
41167;SDS011;26906;45.658;9.272;2023-05-10T14:53:09;13.95;;;10.73;;
41167;SDS011;26906;45.658;9.272;2023-05-10T14:55:34;11.13;;;10.02;;
41167;SDS011;26906;45.658;9.272;2023-05-10T14:58:01;10.23;;;9.23;;
41167;SDS011;26906;45.658;9.272;2023-05-10T15:00:28;11.15;;;9.23;;
41167;SDS011;26906;45.658;9.272;2023-05-10T15:02:54;11.15;;;9.88;;
41167;SDS011;26906;45.658;9.272;2023-05-10T15:05:20;12.13;;;10.57;;
41167;SDS011;26906;45.658;9.272;2023-05-10T15:07:45;11.52;;;10.32;;
41167;SDS011;26906;45.658;9.272;2023-05-10T15:10:11;10.65;;;9.70;;
41167;SDS011;26906;45.658;9.272;2023-05-10T15:12:37;10.48;;;9.40;;
41167;SDS011;26906;45.658;9.272;2023-05-10T15:15:04;13.90;;;8.98;;
41167;SDS011;26906;45.658;9.272;2023-05-10T15:17:30;10.50;;;9.40;;
41167;SDS011;26906;45.658;9.272;2023-05-10T15:19:55;11.82;;;9.02;;
41167;SDS011;26906;45.658;9.272;2023-05-10T15:22:21;11.57;;;9.90;;
41167;SDS011;26906;45.658;9.272;2023-05-10T15:24:47;11.80;;;10.20;;
41167;SDS011;26906;45.658;9.272;2023-05-10T15:27:12;10.50;;;9.48;;
41167;SDS011;26906;45.658;9.272;2023-05-10T15:29:38;13.77;;;9.70;;
41167;SDS011;26906;45.658;9.272;2023-05-10T15:32:04;12.00;;;10.05;;
41167;SDS011;26906;45.658;9.272;2023-05-10T15:34:29;10.43;;;9.40;;
41167;SDS011;26906;45.658;9.272;2023-05-10T15:36:55;10.32;;;9.32;;
41167;SDS011;26906;45.658;9.272;2023-05-10T15:39:21;10.48;;;9.38;;
41167;SDS011;26906;45.658;9.272;2023-05-10T15:41:47;10.40;;;9.27;;
41167;SDS011;26906;45.658;9.272;2023-05-10T15:44:12;9.95;;;8.77;;
41167;SDS011;26906;45.658;9.272;2023-05-10T15:46:38;9.82;;;8.80;;
41167;SDS011;26906;45.658;9.272;2023-05-10T15:49:04;10.40;;;9.30;;
41167;SDS011;26906;45.658;9.272;2023-05-10T15:51:30;12.48;;;10.18;;
41167;SDS011;26906;45.658;9.272;2023-05-10T15:53:57;11.40;;;10.20;;
41167;SDS011;26906;45.658;9.272;2023-05-10T15:56:23;11.75;;;8.75;;
41167;SDS011;26906;45.658;9.272;2023-05-10T15:58:49;10.13;;;9.23;;
41167;SDS011;26906;45.658;9.272;2023-05-10T16:01:15;9.23;;;8.43;;
41167;SDS011;26906;45.658;9.272;2023-05-10T16:03:41;9.43;;;8.18;;
41167;SDS011;26906;45.658;9.272;2023-05-10T16:06:07;9.48;;;8.60;;
41167;SDS011;26906;45.658;9.272;2023-05-10T16:08:33;9.30;;;8.30;;
41167;SDS011;26906;45.658;9.272;2023-05-10T16:10:59;9.93;;;8.93;;
41167;SDS011;26906;45.658;9.272;2023-05-10T16:13:24;10.50;;;8.77;;
41167;SDS011;26906;45.658;9.272;2023-05-10T16:15:50;9.80;;;8.15;;
41167;SDS011;26906;45.658;9.272;2023-05-10T16:18:17;9.68;;;8.73;;
41167;SDS011;26906;45.658;9.272;2023-05-10T16:20:43;9.45;;;8.45;;
41167;SDS011;26906;45.658;9.272;2023-05-10T16:23:09;9.98;;;8.98;;
41167;SDS011;26906;45.658;9.272;2023-05-10T16:25:35;12.07;;;8.27;;
41167;SDS011;26906;45.658;9.272;2023-05-10T16:28:01;8.82;;;7.97;;
41167;SDS011;26906;45.658;9.272;2023-05-10T16:30:27;8.52;;;7.72;;
41167;SDS011;26906;45.658;9.272;2023-05-10T16:32:57;8.50;;;7.72;;
41167;SDS011;26906;45.658;9.272;2023-05-10T16:35:24;8.65;;;7.85;;
41167;SDS011;26906;45.658;9.272;2023-05-10T16:37:50;9.05;;;8.25;;
41167;SDS011;26906;45.658;9.272;2023-05-10T16:40:16;11.07;;;8.27;;
41167;SDS011;26906;45.658;9.272;2023-05-10T16:42:42;8.63;;;7.82;;
41167;SDS011;26906;45.658;9.272;2023-05-10T16:45:08;9.02;;;8.13;;
41167;SDS011;26906;45.658;9.272;2023-05-10T16:47:35;8.63;;;7.82;;
41167;SDS011;26906;45.658;9.272;2023-05-10T16:50:01;8.18;;;7.38;;
41167;SDS011;26906;45.658;9.272;2023-05-10T16:52:28;8.70;;;7.90;;
41167;SDS011;26906;45.658;9.272;2023-05-10T16:54:54;8.32;;;7.43;;
41167;SDS011;26906;45.658;9.272;2023-05-10T16:57:20;8.00;;;7.22;;
41167;SDS011;26906;45.658;9.272;2023-05-10T16:59:46;8.30;;;7.10;;
41167;SDS011;26906;45.658;9.272;2023-05-10T17:02:12;7.90;;;7.20;;
41167;SDS011;26906;45.658;9.272;2023-05-10T17:04:38;8.23;;;7.50;;
41167;SDS011;26906;45.658;9.272;2023-05-10T17:07:04;8.20;;;7.50;;
41167;SDS011;26906;45.658;9.272;2023-05-10T17:09:29;8.55;;;7.72;;
41167;SDS011;26906;45.658;9.272;2023-05-10T17:11:55;9.02;;;8.13;;
41167;SDS011;26906;45.658;9.272;2023-05-10T17:14:21;8.90;;;8.07;;
41167;SDS011;26906;45.658;9.272;2023-05-10T17:16:47;9.43;;;8.05;;
41167;SDS011;26906;45.658;9.272;2023-05-10T17:19:13;9.15;;;8.23;;
41167;SDS011;26906;45.658;9.272;2023-05-10T17:21:38;8.85;;;7.90;;
41167;SDS011;26906;45.658;9.272;2023-05-10T17:24:04;9.30;;;8.40;;
41167;SDS011;26906;45.658;9.272;2023-05-10T17:26:30;9.63;;;7.70;;
41167;SDS011;26906;45.658;9.272;2023-05-10T17:28:56;8.63;;;7.65;;
41167;SDS011;26906;45.658;9.272;2023-05-10T17:31:21;8.80;;;7.63;;
41167;SDS011;26906;45.658;9.272;2023-05-10T17:33:48;7.30;;;6.68;;
41167;SDS011;26906;45.658;9.272;2023-05-10T17:36:14;9.90;;;7.43;;
41167;SDS011;26906;45.658;9.272;2023-05-10T17:38:39;8.35;;;6.90;;
41167;SDS011;26906;45.658;9.272;2023-05-10T17:41:06;8.52;;;6.72;;
41167;SDS011;26906;45.658;9.272;2023-05-10T17:43:32;7.35;;;6.65;;
41167;SDS011;26906;45.658;9.272;2023-05-10T17:45:58;7.45;;;6.68;;
41167;SDS011;26906;45.658;9.272;2023-05-10T17:48:23;7.45;;;6.68;;
41167;SDS011;26906;45.658;9.272;2023-05-10T17:50:49;7.35;;;6.45;;
41167;SDS011;26906;45.658;9.272;2023-05-10T17:53:15;7.40;;;6.80;;
41167;SDS011;26906;45.658;9.272;2023-05-10T17:55:41;7.78;;;7.07;;
41167;SDS011;26906;45.658;9.272;2023-05-10T17:58:09;6.97;;;6.38;;
41167;SDS011;26906;45.658;9.272;2023-05-10T18:00:35;7.78;;;7.07;;
41167;SDS011;26906;45.658;9.272;2023-05-10T18:03:01;8.00;;;7.20;;
41167;SDS011;26906;45.658;9.272;2023-05-10T18:05:27;8.18;;;6.78;;
41167;SDS011;26906;45.658;9.272;2023-05-10T18:07:53;7.45;;;6.75;;
41167;SDS011;26906;45.658;9.272;2023-05-10T18:10:19;7.78;;;6.97;;
41167;SDS011;26906;45.658;9.272;2023-05-10T18:13:03;7.20;;;6.50;;
41167;SDS011;26906;45.658;9.272;2023-05-10T18:15:32;8.38;;;7.25;;
41167;SDS011;26906;45.658;9.272;2023-05-10T18:18:01;8.05;;;7.22;;
41167;SDS011;26906;45.658;9.272;2023-05-10T18:20:28;7.28;;;6.60;;
41167;SDS011;26906;45.658;9.272;2023-05-10T18:22:54;8.45;;;7.05;;
41167;SDS011;26906;45.658;9.272;2023-05-10T18:25:21;8.02;;;7.28;;
41167;SDS011;26906;45.658;9.272;2023-05-10T18:27:47;7.78;;;7.00;;
41167;SDS011;26906;45.658;9.272;2023-05-10T18:30:13;8.25;;;7.18;;
41167;SDS011;26906;45.658;9.272;2023-05-10T18:32:39;10.65;;;7.03;;
41167;SDS011;26906;45.658;9.272;2023-05-10T18:35:05;7.90;;;7.18;;
41167;SDS011;26906;45.658;9.272;2023-05-10T18:37:32;8.27;;;7.45;;
41167;SDS011;26906;45.658;9.272;2023-05-10T18:39:58;9.70;;;7.07;;
41167;SDS011;26906;45.658;9.272;2023-05-10T18:42:25;8.02;;;6.72;;
41167;SDS011;26906;45.658;9.272;2023-05-10T18:44:51;8.05;;;7.28;;
41167;SDS011;26906;45.658;9.272;2023-05-10T18:47:17;8.40;;;7.53;;
41167;SDS011;26906;45.658;9.272;2023-05-10T18:49:43;57.45;;;35.60;;
41167;SDS011;26906;45.658;9.272;2023-05-10T18:52:11;75.80;;;56.70;;
41167;SDS011;26906;45.658;9.272;2023-05-10T18:54:38;42.15;;;37.67;;
41167;SDS011;26906;45.658;9.272;2023-05-10T18:57:03;25.50;;;21.50;;
41167;SDS011;26906;45.658;9.272;2023-05-10T18:59:29;15.88;;;14.35;;
41167;SDS011;26906;45.658;9.272;2023-05-10T19:01:55;11.43;;;10.23;;
41167;SDS011;26906;45.658;9.272;2023-05-10T19:04:21;10.25;;;8.82;;
41167;SDS011;26906;45.658;9.272;2023-05-10T19:06:46;9.60;;;8.60;;
41167;SDS011;26906;45.658;9.272;2023-05-10T19:09:12;9.20;;;8.40;;
41167;SDS011;26906;45.658;9.272;2023-05-10T19:11:39;8.93;;;8.13;;
41167;SDS011;26906;45.658;9.272;2023-05-10T19:14:05;8.32;;;7.53;;
41167;SDS011;26906;45.658;9.272;2023-05-10T19:16:30;8.80;;;8.00;;
41167;SDS011;26906;45.658;9.272;2023-05-10T19:18:58;8.48;;;7.60;;
41167;SDS011;26906;45.658;9.272;2023-05-10T19:21:24;10.75;;;7.93;;
41167;SDS011;26906;45.658;9.272;2023-05-10T19:23:50;9.32;;;8.40;;
41167;SDS011;26906;45.658;9.272;2023-05-10T19:26:17;33.40;;;27.35;;
41167;SDS011;26906;45.658;9.272;2023-05-10T19:28:42;12.73;;;11.43;;
41167;SDS011;26906;45.658;9.272;2023-05-10T19:31:09;11.57;;;10.45;;
41167;SDS011;26906;45.658;9.272;2023-05-10T19:33:35;12.40;;;10.15;;
41167;SDS011;26906;45.658;9.272;2023-05-10T19:36:05;10.35;;;9.45;;
41167;SDS011;26906;45.658;9.272;2023-05-10T19:38:52;36.15;;;32.45;;
41167;SDS011;26906;45.658;9.272;2023-05-10T19:41:18;20.02;;;17.92;;
41167;SDS011;26906;45.658;9.272;2023-05-10T19:43:44;17.23;;;15.63;;
41167;SDS011;26906;45.658;9.272;2023-05-10T19:46:10;13.20;;;11.80;;
41167;SDS011;26906;45.658;9.272;2023-05-10T19:48:37;12.35;;;11.07;;
41167;SDS011;26906;45.658;9.272;2023-05-10T19:51:06;13.52;;;12.07;;
41167;SDS011;26906;45.658;9.272;2023-05-10T19:53:31;13.85;;;12.55;;
41167;SDS011;26906;45.658;9.272;2023-05-10T19:56:04;10.52;;;9.52;;
41167;SDS011;26906;45.658;9.272;2023-05-10T19:58:31;11.45;;;10.25;;
41167;SDS011;26906;45.658;9.272;2023-05-10T20:00:58;12.40;;;10.93;;
41167;SDS011;26906;45.658;9.272;2023-05-10T20:03:24;14.43;;;10.30;;
41167;SDS011;26906;45.658;9.272;2023-05-10T20:05:51;11.77;;;10.55;;
41167;SDS011;26906;45.658;9.272;2023-05-10T20:08:17;11.13;;;10.02;;
41167;SDS011;26906;45.658;9.272;2023-05-10T20:10:44;11.13;;;10.13;;
41167;SDS011;26906;45.658;9.272;2023-05-10T20:13:10;11.82;;;10.57;;
41167;SDS011;26906;45.658;9.272;2023-05-10T20:15:36;11.60;;;10.38;;
41167;SDS011;26906;45.658;9.272;2023-05-10T20:18:01;11.75;;;9.98;;
41167;SDS011;26906;45.658;9.272;2023-05-10T20:20:28;10.20;;;9.10;;
41167;SDS011;26906;45.658;9.272;2023-05-10T20:22:54;10.77;;;9.68;;